createdAt,value
2019-01-26T00:01:52.524Z,67.60
2019-01-26T00:06:10.927Z,67.10
2019-01-26T00:10:29.767Z,66.90
2019-01-26T00:14:48.369Z,67.30
2019-01-26T00:19:06.715Z,67.20
2019-01-26T00:23:24.918Z,67.00
2019-01-26T00:27:43.106Z,67.20
2019-01-26T00:32:01.281Z,67.20
2019-01-26T00:36:19.473Z,67.90
2019-01-26T00:40:37.949Z,66.40
2019-01-26T00:44:56.193Z,66.30
2019-01-26T00:49:14.984Z,66.40
2019-01-26T00:53:33.111Z,66.70
2019-01-26T00:57:51.330Z,66.50
2019-01-26T01:02:09.378Z,66.80
2019-01-26T01:06:27.522Z,67.00
2019-01-26T01:10:45.719Z,67.10
2019-01-26T01:15:04.299Z,67.00
2019-01-26T01:19:22.455Z,67.10
2019-01-26T01:23:40.689Z,67.20
2019-01-26T01:27:59.276Z,67.10
2019-01-26T01:32:17.455Z,67.30
2019-01-26T01:36:35.796Z,67.50
2019-01-26T01:40:55.073Z,67.50
2019-01-26T01:45:16.761Z,67.40
2019-01-26T01:49:34.916Z,67.70
2019-01-26T01:53:53.118Z,67.80
2019-01-26T01:58:11.346Z,68.00
2019-01-26T02:02:29.697Z,68.00
2019-01-26T02:06:47.845Z,68.20
2019-01-26T02:11:06.520Z,68.20
2019-01-26T02:15:24.651Z,68.10
2019-01-26T02:19:42.924Z,68.10
2019-01-26T02:24:01.063Z,68.30
2019-01-26T02:28:19.466Z,68.20
2019-01-26T02:32:37.884Z,68.30
2019-01-26T02:36:55.961Z,68.40
2019-01-26T02:41:14.128Z,68.70
2019-01-26T02:45:33.275Z,68.60
2019-01-26T02:49:51.470Z,69.00
2019-01-26T02:54:10.027Z,68.80
2019-01-26T02:58:28.251Z,69.00
2019-01-26T03:02:46.383Z,69.00
2019-01-26T03:07:04.824Z,69.00
2019-01-26T03:11:23.012Z,69.10
2019-01-26T03:15:41.604Z,69.20
2019-01-26T03:19:59.824Z,69.30
2019-01-26T03:24:17.946Z,69.30
2019-01-26T03:28:36.585Z,69.50
2019-01-26T03:32:54.706Z,69.60
2019-01-26T03:37:13.192Z,69.80
2019-01-26T03:41:31.466Z,69.90
2019-01-26T03:45:49.628Z,70.00
2019-01-26T03:50:09.643Z,70.20
2019-01-26T03:54:28.967Z,70.10
2019-01-26T03:58:47.437Z,70.20
2019-01-26T04:03:05.657Z,70.20
2019-01-26T04:07:23.874Z,70.20
2019-01-26T04:11:42.303Z,70.50
2019-01-26T04:16:00.452Z,70.50
2019-01-26T04:20:20.840Z,70.60
2019-01-26T04:24:40.152Z,70.70
2019-01-26T04:28:58.612Z,70.70
2019-01-26T04:33:16.743Z,70.70
2019-01-26T04:37:34.884Z,70.80
2019-01-26T04:41:53.099Z,70.80
2019-01-26T04:46:11.329Z,70.90
2019-01-26T04:50:29.508Z,70.90
2019-01-26T04:54:49.482Z,70.80
2019-01-26T04:59:07.538Z,71.00
2019-01-26T05:03:25.807Z,71.00
2019-01-26T05:07:43.812Z,71.00
2019-01-26T05:12:02.137Z,71.00
2019-01-26T05:16:20.307Z,71.20
2019-01-26T05:20:38.700Z,71.30
2019-01-26T05:24:57.107Z,71.20
2019-01-26T05:29:15.984Z,71.20
2019-01-26T05:33:34.372Z,71.20
2019-01-26T05:37:52.585Z,71.20
2019-01-26T05:42:11.090Z,71.10
2019-01-26T05:46:29.230Z,71.40
2019-01-26T05:50:47.400Z,71.10
2019-01-26T05:55:06.363Z,71.30
2019-01-26T05:59:25.105Z,71.40
2019-01-26T06:03:43.238Z,71.40
2019-01-26T06:08:01.741Z,71.40
2019-01-26T06:12:19.913Z,71.40
2019-01-26T06:16:38.357Z,71.40
2019-01-26T06:20:56.544Z,71.80
2019-01-26T06:25:16.479Z,71.80
2019-01-26T06:29:35.101Z,71.90
2019-01-26T06:33:53.303Z,71.90
2019-01-26T06:38:11.895Z,72.00
2019-01-26T06:42:30.153Z,72.10
2019-01-26T06:46:48.698Z,72.10
2019-01-26T06:51:07.274Z,72.10
2019-01-26T06:55:25.669Z,72.40
2019-01-26T06:59:44.097Z,72.30
2019-01-26T07:04:02.553Z,72.40
2019-01-26T07:08:22.653Z,72.30
2019-01-26T07:12:41.131Z,72.40
2019-01-26T07:16:59.398Z,72.40
2019-01-26T07:21:17.534Z,72.50
2019-01-26T07:25:35.833Z,72.50
2019-01-26T07:29:54.058Z,72.60
2019-01-26T07:34:12.599Z,72.80
2019-01-26T07:38:32.001Z,72.70
2019-01-26T07:42:50.742Z,72.80
2019-01-26T07:47:08.842Z,72.90
2019-01-26T07:51:27.254Z,72.90
2019-01-26T07:55:45.420Z,73.00
2019-01-26T08:00:03.865Z,73.00
2019-01-26T08:04:23.469Z,73.10
2019-01-26T08:08:41.599Z,73.20
2019-01-26T08:12:59.806Z,73.40
2019-01-26T08:17:18.084Z,73.70
2019-01-26T08:21:36.621Z,73.80
2019-01-26T08:25:54.838Z,73.70
2019-01-26T08:30:17.711Z,73.90
2019-01-26T08:34:35.796Z,74.10
2019-01-26T08:38:54.097Z,74.10
2019-01-26T08:43:12.409Z,74.20
2019-01-26T08:47:31.078Z,74.10
2019-01-26T08:51:49.238Z,74.20
2019-01-26T08:56:07.527Z,73.90
2019-01-26T09:00:28.352Z,73.50
2019-01-26T09:04:46.695Z,73.90
2019-01-26T09:09:09.202Z,74.00
2019-01-26T09:13:27.720Z,74.30
2019-01-26T09:17:47.198Z,74.50
2019-01-26T09:22:05.431Z,74.40
2019-01-26T09:26:23.598Z,74.10
2019-01-26T09:30:42.067Z,73.70
2019-01-26T09:35:00.464Z,73.70
2019-01-26T09:39:18.609Z,73.20
2019-01-26T09:43:36.769Z,73.30
2019-01-26T09:47:54.989Z,73.70
2019-01-26T09:52:13.128Z,73.50
2019-01-26T09:56:31.387Z,73.90
2019-01-26T10:00:49.646Z,74.00
2019-01-26T10:05:08.388Z,74.50
2019-01-26T10:09:26.892Z,74.90
2019-01-26T10:13:46.023Z,75.30
2019-01-26T10:18:05.706Z,75.20
2019-01-26T10:22:25.601Z,74.90
2019-01-26T10:26:44.072Z,74.90
2019-01-26T10:31:08.608Z,74.60
2019-01-26T10:35:39.264Z,74.80
2019-01-26T10:39:59.429Z,74.50
2019-01-26T10:44:23.801Z,74.40
2019-01-26T10:48:43.422Z,75.30
2019-01-26T10:53:03.140Z,74.50
2019-01-26T10:57:23.275Z,75.40
2019-01-26T11:01:43.699Z,76.80
2019-01-26T11:06:03.941Z,78.00
2019-01-26T11:10:23.037Z,79.30
2019-01-26T11:14:43.870Z,77.20
2019-01-26T11:19:07.849Z,77.30
2019-01-26T11:23:24.513Z,75.60
2019-01-26T11:27:43.247Z,75.10
2019-01-26T11:32:02.512Z,72.80
2019-01-26T11:36:21.754Z,72.10
2019-01-26T11:40:42.434Z,71.10
2019-01-26T11:45:18.777Z,71.20
2019-01-26T11:49:39.635Z,70.50
2019-01-26T11:53:59.819Z,72.80
2019-01-26T11:58:18.938Z,73.10
2019-01-26T12:02:44.086Z,73.70
2019-01-26T12:07:09.332Z,74.60
2019-01-26T12:11:29.009Z,74.00
2019-01-26T12:15:47.424Z,71.80
2019-01-26T12:20:07.935Z,72.80
2019-01-26T12:24:25.933Z,72.00
2019-01-26T12:28:44.052Z,71.50
2019-01-26T12:33:02.246Z,70.90
2019-01-26T12:37:20.443Z,70.90
2019-01-26T12:41:38.570Z,71.50
2019-01-26T12:45:56.794Z,72.30
2019-01-26T12:50:15.151Z,72.20
2019-01-26T12:54:34.514Z,72.20
2019-01-26T12:58:52.806Z,71.80
2019-01-26T13:03:11.235Z,72.20
2019-01-26T13:07:29.385Z,72.60
2019-01-26T13:11:48.785Z,72.20
2019-01-26T13:16:07.253Z,72.00
2019-01-26T13:20:25.457Z,72.30
2019-01-26T13:24:43.887Z,71.80
2019-01-26T13:29:02.099Z,72.70
2019-01-26T13:33:20.522Z,71.50
2019-01-26T13:37:38.654Z,71.00
2019-01-26T13:41:57.075Z,71.50
2019-01-26T13:46:15.405Z,71.60
2019-01-26T13:50:33.968Z,72.00
2019-01-26T13:54:52.275Z,71.90
2019-01-26T13:59:10.835Z,72.00
2019-01-26T14:03:29.367Z,71.50
2019-01-26T14:07:48.243Z,71.00
2019-01-26T14:12:06.545Z,70.30
2019-01-26T14:16:24.851Z,70.70
2019-01-26T14:20:44.195Z,70.60
2019-01-26T14:25:02.771Z,69.90
2019-01-26T14:29:20.996Z,70.20
2019-01-26T14:33:39.701Z,70.30
2019-01-26T14:37:58.355Z,70.40
2019-01-26T14:42:16.959Z,70.50
2019-01-26T14:46:35.729Z,71.00
2019-01-26T14:50:53.924Z,70.90
2019-01-26T14:55:16.820Z,71.10
2019-01-26T14:59:34.928Z,71.50
2019-01-26T15:03:53.046Z,71.30
2019-01-26T15:08:11.139Z,71.40
2019-01-26T15:12:29.331Z,71.30
2019-01-26T15:16:47.529Z,71.10
2019-01-26T15:21:06.652Z,71.10
2019-01-26T15:25:25.211Z,71.30
2019-01-26T15:29:43.437Z,71.00
2019-01-26T15:34:01.702Z,71.10
2019-01-26T15:38:20.652Z,71.30
2019-01-26T15:42:39.012Z,71.20
2019-01-26T15:46:57.146Z,71.60
2019-01-26T15:51:15.268Z,71.50
2019-01-26T15:55:33.843Z,71.50
2019-01-26T15:59:53.545Z,71.60
2019-01-26T16:04:12.307Z,71.60
2019-01-26T16:08:30.887Z,71.80
2019-01-26T16:12:49.045Z,71.90
2019-01-26T16:17:07.445Z,72.00
2019-01-26T16:21:25.752Z,72.00
2019-01-26T16:25:43.853Z,71.80
2019-01-26T16:30:02.552Z,71.80
2019-01-26T16:34:20.694Z,71.70
2019-01-26T16:38:39.344Z,71.80
2019-01-26T16:42:58.288Z,71.80
2019-01-26T16:47:17.050Z,71.90
2019-01-26T16:51:35.584Z,71.80
2019-01-26T16:55:53.910Z,71.90
2019-01-26T17:00:21.477Z,72.10
2019-01-26T17:04:39.679Z,72.00
2019-01-26T17:08:57.850Z,71.90
2019-01-26T17:13:16.305Z,71.50
2019-01-26T17:17:34.783Z,71.70
2019-01-26T17:21:52.962Z,71.70
2019-01-26T17:26:11.293Z,71.60
2019-01-26T17:30:38.994Z,71.90
2019-01-26T17:34:57.093Z,72.10
2019-01-26T17:39:15.425Z,71.90
2019-01-26T17:43:33.904Z,71.80
2019-01-26T17:47:52.532Z,71.50
2019-01-26T17:52:10.774Z,71.50
2019-01-26T17:56:29.421Z,71.80
2019-01-26T18:00:52.441Z,71.50
2019-01-26T18:05:12.450Z,71.80
2019-01-26T18:09:30.696Z,71.90
2019-01-26T18:13:48.917Z,71.50
2019-01-26T18:18:07.891Z,70.90
2019-01-26T18:22:26.179Z,71.20
2019-01-26T18:26:44.337Z,71.30
2019-01-26T18:31:02.467Z,71.30
2019-01-26T18:35:22.463Z,72.20
2019-01-26T18:39:40.732Z,71.40
2019-01-26T18:43:58.921Z,71.40
2019-01-26T18:48:17.737Z,71.60
2019-01-26T18:52:35.815Z,71.50
2019-01-26T18:56:54.076Z,71.50
2019-01-26T19:01:13.207Z,71.80
2019-01-26T19:05:33.339Z,72.00
2019-01-26T19:09:51.722Z,71.80
2019-01-26T19:14:10.427Z,71.70
2019-01-26T19:18:28.542Z,71.80
2019-01-26T19:22:49.789Z,71.90
2019-01-26T19:27:08.175Z,71.80
2019-01-26T19:31:26.339Z,71.80
2019-01-26T19:35:44.994Z,71.60
2019-01-26T19:40:03.379Z,71.90
2019-01-26T19:44:22.784Z,71.80
2019-01-26T19:48:40.922Z,71.90
2019-01-26T19:52:59.213Z,72.10
2019-01-26T19:57:17.410Z,72.10
2019-01-26T20:01:35.851Z,71.90
2019-01-26T20:05:53.993Z,71.80
2019-01-26T20:10:13.233Z,71.70
2019-01-26T20:14:32.977Z,71.40
2019-01-26T20:18:51.003Z,71.50
2019-01-26T20:23:09.465Z,71.60
2019-01-26T20:27:27.749Z,71.40
2019-01-26T20:31:45.941Z,71.30
2019-01-26T20:36:04.364Z,71.10
2019-01-26T20:40:23.148Z,71.00
2019-01-26T20:44:41.179Z,71.10
2019-01-26T20:49:00.358Z,71.00
2019-01-26T20:53:18.497Z,71.00
2019-01-26T20:57:37.080Z,71.00
2019-01-26T21:01:55.420Z,71.00
2019-01-26T21:06:12.312Z,70.90
2019-01-26T21:10:31.742Z,70.90
2019-01-26T21:14:50.064Z,71.20
2019-01-26T21:19:08.560Z,71.50
2019-01-26T21:23:27.085Z,71.80
2019-01-26T21:27:45.312Z,71.80
2019-01-26T21:32:03.482Z,71.80
2019-01-26T21:36:21.676Z,71.70
2019-01-26T21:40:39.948Z,71.60
2019-01-26T21:44:58.132Z,71.80
2019-01-26T21:49:16.563Z,71.80
2019-01-26T21:53:34.666Z,71.80
2019-01-26T21:57:51.691Z,72.00
2019-01-26T22:02:09.523Z,72.20
2019-01-26T22:06:28.028Z,72.30
2019-01-26T22:10:46.451Z,72.30
2019-01-26T22:15:05.690Z,72.30
2019-01-26T22:19:24.757Z,72.40
2019-01-26T22:23:43.043Z,72.30
2019-01-26T22:28:01.310Z,72.30
2019-01-26T22:32:19.930Z,72.50
2019-01-26T22:36:38.157Z,72.60
2019-01-26T22:40:56.814Z,72.50
2019-01-26T22:45:15.922Z,72.50
2019-01-26T22:49:34.478Z,72.50
2019-01-26T22:53:52.681Z,72.30
2019-01-26T22:58:10.880Z,72.10
2019-01-26T23:02:28.968Z,72.40
2019-01-26T23:07:35.165Z,72.30
2019-01-26T23:12:21.858Z,72.40
2019-01-26T23:17:25.975Z,72.40
2019-01-26T23:23:05.324Z,72.30
2019-01-26T23:28:19.469Z,72.10
2019-01-26T23:32:38.183Z,72.00
2019-01-26T23:36:56.325Z,72.00
2019-01-26T23:41:14.797Z,72.00
2019-01-26T23:45:32.824Z,71.90
2019-01-26T23:49:51.003Z,71.90
2019-01-26T23:54:09.232Z,71.60
2019-01-26T23:58:27.474Z,71.60
